Carlsbad Station Data

Red Flag Warning: No
Fire Weather Zone: 243
SDGE Region: North Coast
Lat/Lon: 33.137/-117.327

Observations

Time Wind Speed/Gust Temp(F) RH Fuel Moist Fuel Temp(F) Dewpt(F) Tmax(F) Tmin(F) Accum Precip 10-min Precip SL Press(mb)
6/27 5:00pm 257 6 G 10 67° 86% - - 63° 71° 58.4° - - 1008.0
6/27 4:50pm 267 6 G 10 67° 85% - - 63° 71° 58.4° - - 1008.0
6/27 4:40pm 268 6 G 10 68° 85% - - 63° 71° 58.4° - - 1009.0
6/27 4:30pm 261 6 G 10 69° 84% - - 64° 71° 58.4° - - 1009.0
6/27 4:20pm 263 7 G 11 69° 84% - - 64° 71° 58.4° - - 1009.0
6/27 4:10pm 245 7 G 13 69° 85% - - 64° 71° 58.4° - - 1009.0
6/27 4:00pm 232 9 G 12 68° 86% - - 64° 71° 58.4° - - 1009.0
6/27 3:50pm 226 8 G 12 70° 83% - - 64° 71° 58.4° - - 1009.0
6/27 3:40pm 224 8 G 12 69° 84% - - 64° 71° 58.4° - - 1009.0
6/27 3:30pm 227 9 G 13 69° 83% - - 64° 71° 58.4° - - 1009.0
6/27 3:20pm 213 8 G 12 70° 82% - - 64° 71° 58.4° - - 1009.0
6/27 3:10pm 205 9 G 13 69° 82% - - 63° 71° 58.4° - - 1009.0
6/27 3:00pm 206 8 G 12 69° 80% - - 63° 71° 58.4° - - 1009.0
6/27 2:50pm 200 8 G 11 69° 79% - - 63° 71° 58.4° - - 1009.0
6/27 2:40pm 203 8 G 13 69° 79% - - 62° 71° 58.4° - - 1009.0
6/27 2:30pm 221 8 G 11 69° 78% - - 62° 71° 58.4° - - 1009.0
6/27 2:20pm 230 8 G 12 70° 77% - - 62° 71° 58.4° - - 1009.0
6/27 2:10pm 246 6 G 10 70° 77% - - 62° 71° 58.4° - - 1009.0
6/27 2:00pm 261 7 G 11 69° 79% - - 62° 70.8° 58.4° - - 1009.0
6/27 1:50pm 263 6 G 9 69° 79% - - 63° 70.8° 58.4° - - 1009.0
6/27 1:40pm 253 8 G 11 69° 78% - - 62° 70.8° 58.4° - - 1009.0
6/27 1:30pm 257 8 G 12 69° 80% - - 62° 70.8° 58.4° - - 1009.0
6/27 1:20pm 258 8 G 12 68° 82% - - 63° 70.8° 58.4° - - 1010.0
6/27 1:10pm 253 8 G 12 69° 81% - - 63° 70.8° 58.4° - - 1009.0
6/27 1:00pm 258 8 G 12 69° 81% - - 63° 70.8° 58.4° - - 1009.0
6/27 12:50pm 277 8 G 12 69° 82% - - 63° 70.8° 58.4° - - 1009.0
6/27 12:40pm 277 7 G 13 70° 81% - - 64° 70.8° 58.4° - - 1009.0
6/27 12:30pm 254 7 G 10 70° 83% - - 64° 70.8° 58.4° - - 1009.0
6/27 12:20pm 244 6 G 10 70° 83% - - 64° 70.8° 58.4° - - 1010.0
6/27 12:10pm 235 7 G 9 70° 81% - - 64° 70.8° 58.4° - - 1010.0
6/27 12:00pm 230 7 G 11 70° 82% - - 64° 70.5° 58.4° - - 1010.0
6/27 11:50am 257 6 G 10 69° 84% - - 63° 70.2° 58.4° - - 1010.0
6/27 11:40am 249 7 G 11 69° 84% - - 64° 70.2° 58.4° - - 1010.0
6/27 11:30am 246 8 G 11 69° 83% - - 63° 70.2° 58.4° - - 1010.0
6/27 11:20am 245 8 G 10 69° 82% - - 63° 70.2° 58.4° - - 1010.0
6/27 11:10am 254 7 G 10 69° 81% - - 63° 69.9° 58.4° - - 1010.0
6/27 11:00am 255 7 G 10 69° 80% - - 62° 69.9° 58.4° - - 1009.0
6/27 10:50am 266 6 G 9 69° 82% - - 63° 69.9° 58.4° - - 1009.0
6/27 10:40am 272 7 G 9 68° 84% - - 63° 69.9° 58.4° - - 1009.0
6/27 10:30am 271 7 G 10 68° 84% - - 63° 69.9° 58.4° - - 1009.0
6/27 10:20am 276 7 G 11 68° 82% - - 62° 69.9° 58.4° - - 1009.0
6/27 10:10am 267 5 G 8 68° 81% - - 62° 69.9° 58.4° - - 1009.0
6/27 10:00am 280 5 G 8 68° 81% - - 62° 69.9° 58.4° - - 1009.0
6/27 9:50am 262 5 G 7 68° 83% - - 63° 69.9° 58.4° - - 1009.0
6/27 9:40am 252 5 G 8 68° 83% - - 63° 69.9° 58.4° - - 1009.0
6/27 9:30am 232 6 G 8 68° 84% - - 63° 69.9° 58.4° - - 1010.0
6/27 9:20am 233 6 G 8 68° 83% - - 63° 69.9° 58.4° - - 1010.0
6/27 9:10am 223 6 G 8 68° 81% - - 62° 69.9° 58.4° - - 1010.0
6/27 9:00am 244 4 G 6 69° 78% - - 62° 69.9° 58.4° - - 1010.0
6/27 8:50am 261 3 G 5 69° 78% - - 61° 69.2° 58.4° - - 1009.0
6/27 8:40am 229 4 G 5 68° 79% - - 61° 68.9° 58.4° - - 1009.0
6/27 8:30am 231 3 G 5 68° 79% - - 62° 68.9° 58.4° - - 1009.0
6/27 8:20am 261 2 G 4 68° 82% - - 63° 68.9° 58.4° - - 1009.0
6/27 8:10am 280 1 G 4 68° 81% - - 62° 68.9° 58.4° - - 1009.0
6/27 8:00am 315 1 G 2 67° 83% - - 62° 68.1° 58.4° - - 1009.0
6/27 7:50am 233 2 G 3 67° 84% - - 62° 67.6° 58.4° - - 1009.0
6/27 7:40am 53 0 G 2 66° 85% - - 62° 67.6° 58.4° - - 1009.0
6/27 7:30am 65 2 G 3 65° 87% - - 60° 65.8° 58.4° - - 1009.0
6/27 7:20am 57 3 G 4 63° 87% - - 59° 65.3° 58.4° - - 1009.0
6/27 7:10am 61 3 G 4 62° 88% - - 59° 65.3° 58.4° - - 1009.0
6/27 7:00am 77 3 G 4 62° 90% - - 59° 65.3° 58.4° - - 1009.0
6/27 6:50am 70 5 G 6 60° 88% - - 56° 65.3° 58.4° - - 1009.0
6/27 6:40am 64 6 G 7 60° 88% - - 56° 65.3° 58.4° - - 1009.0
6/27 6:30am 66 5 G 6 61° 89% - - 57° 65.3° 58.4° - - 1009.0
6/27 6:20am 62 5 G 6 59° 89% - - 56° 65.3° 58.4° - - 1009.0
6/27 6:10am 64 6 G 6 59° 88% - - 55° 65.3° 58.4° - - 1009.0
6/27 6:00am 68 6 G 7 59° 89% - - 56° 65.3° 58.4° - - 1008.0
6/27 5:50am 66 7 G 7 59° 90% - - 56° 65.3° 58.4° - - 1008.0
6/27 5:40am 72 4 G 7 61° 90% - - 58° 65.3° 58.8° - - 1008.0
6/27 5:30am 116 2 G 3 62° 89% - - 59° 65.3° 59.3° - - 1008.0
6/27 5:20am 149 2 G 3 62° 88% - - 59° 65.3° 59.3° - - 1008.0
6/27 5:10am 130 3 G 4 62° 88% - - 58° 65.3° 59.3° - - 1008.0
6/27 5:00am 65 5 G 6 61° 90% - - 58° 65.3° 59.3° - - 1008.0
6/27 4:50am 63 5 G 6 60° 89% - - 57° 65.3° 59.3° - - 1008.0
6/27 4:40am 63 5 G 6 61° 91% - - 58° 65.3° 59.3° - - 1008.0
6/27 4:30am 70 5 G 6 60° 91% - - 57° 65.3° 59.4° - - 1008.0
6/27 4:20am 58 5 G 5 60° 92% - - 58° 65.3° 59.6° - - 1008.0
6/27 4:10am 57 5 G 6 60° 91% - - 58° 65.3° 59.6° - - 1008.0
6/27 4:00am 60 5 G 6 61° 91% - - 58° 65.3° 59.9° - - 1008.0
6/27 3:50am 71 6 G 6 60° 91% - - 58° 65.3° 60.1° - - 1008.0
6/27 3:40am 68 5 G 6 61° 90% - - 58° 65.3° 60.1° - - 1008.0
6/27 3:30am 62 5 G 6 61° 90% - - 58° 65.3° 60.4° - - 1008.0
6/27 3:20am 56 5 G 5 62° 90% - - 59° 65.3° 60.4° - - 1008.0
6/27 3:10am 56 4 G 5 61° 91% - - 59° 65.3° 60.4° - - 1008.0
6/27 3:00am 69 6 G 6 61° 90% - - 58° 65.3° 60.4° - - 1008.0
6/27 2:50am 63 4 G 6 62° 90% - - 59° 65.3° 61° - - 1008.0
6/27 2:40am 62 2 G 4 63° 90% - - 60° 65.3° 62.3° - - 1008.0
6/27 2:30am 22 1 G 2 63° 91% - - 61° 65.3° 62.3° - - 1008.0
6/27 2:20am 145 0 G 1 64° 91% - - 61° 65.3° 62.3° - - 1009.0
6/27 2:10am 99 1 G 3 64° 90% - - 61° 65.3° 62.3° - - 1009.0
6/27 2:00am 72 3 G 4 64° 90% - - 61° 65.3° 62.3° - - 1009.0
6/27 1:50am 81 4 G 5 64° 90% - - 61° 65.3° 62.3° - - 1009.0
6/27 1:40am 75 4 G 5 63° 89% - - 60° 65.3° 62.3° - - 1009.0
6/27 1:30am 57 4 G 5 63° 89% - - 60° 65.3° 62.3° - - 1009.0
6/27 1:20am 38 3 G 4 64° 89% - - 61° 65.3° 63.5° - - 1009.0
6/27 1:10am 55 4 G 5 64° 89% - - 61° 65.3° 63.5° - - 1009.0
6/27 1:00am 70 4 G 4 64° 89% - - 61° 65.3° 63.9° - - 1009.0
6/27 12:50am 56 4 G 4 64° 89% - - 61° 65.3° 63.9° - - 1009.0
6/27 12:40am 64 3 G 4 65° 89% - - 61° 65.3° 63.9° - - 1009.0
6/27 12:30am 64 4 G 4 64° 90% - - 61° 65.3° 63.9° - - 1009.0
6/27 12:20am 56 3 G 4 65° 89% - - 61° 65.3° 64.1° - - 1009.0
6/27 12:10am 73 4 G 5 65° 88% - - 61° 65.2° 64.1° - - 1009.0
6/27 12:00am 67 4 G 5 65° 89% - - 62° 73.9° 58.6° - - 1010.0
6/26 11:50pm 61 3 G 4 65° 90% - - 62° 73.9° 58.6° - - 1010.0
6/26 11:40pm 56 3 G 5 65° 89% - - 62° 73.9° 58.6° - - 1010.0
6/26 11:30pm 14 2 G 2 66° 90% - - 63° 73.9° 58.6° - - 1010.0
6/26 11:20pm 17 1 G 2 66° 90% - - 63° 73.9° 58.6° - - 1010.0
6/26 11:10pm 251 0 G 0 67° 90% - - 63° 73.9° 58.6° - - 1010.0
6/26 11:00pm 336 1 G 2 67° 90% - - 63° 73.9° 58.6° - - 1010.0
6/26 10:50pm 333 1 G 2 67° 89% - - 64° 73.9° 58.6° - - 1010.0
6/26 10:40pm 330 1 G 1 67° 89% - - 64° 73.9° 58.6° - - 1010.0
6/26 10:30pm 27 0 G 1 67° 89% - - 63° 73.9° 58.6° - - 1010.0
6/26 10:20pm 31 1 G 2 67° 88% - - 63° 73.9° 58.6° - - 1010.0
6/26 10:10pm 124 0 G 1 67° 87% - - 63° 73.9° 58.6° - - 1010.0
6/26 10:00pm 86 1 G 3 68° 87% - - 64° 73.9° 58.6° - - 1010.0
6/26 9:50pm 97 2 G 3 68° 87% - - 64° 73.9° 58.6° - - 1010.0
6/26 9:40pm 134 2 G 4 68° 87% - - 64° 73.9° 58.6° - - 1009.0
6/26 9:30pm 160 2 G 4 68° 88% - - 64° 73.9° 58.6° - - 1010.0
6/26 9:20pm 193 3 G 4 68° 88% - - 64° 73.9° 58.6° - - 1010.0
6/26 9:10pm 188 4 G 6 68° 88% - - 64° 73.9° 58.6° - - 1009.0
6/26 9:00pm 190 3 G 5 68° 88% - - 64° 73.9° 58.6° - - 1009.0
6/26 8:50pm 199 3 G 5 68° 87% - - 64° 73.9° 58.6° - - 1009.0
6/26 8:40pm 205 4 G 6 68° 87% - - 64° 73.9° 58.6° - - 1009.0
6/26 8:30pm 208 3 G 5 68° 87% - - 64° 73.9° 58.6° - - 1009.0
6/26 8:20pm 203 4 G 5 68° 87% - - 64° 73.9° 58.6° - - 1009.0
6/26 8:10pm 204 3 G 5 68° 86% - - 64° 73.9° 58.6° - - 1009.0
6/26 8:00pm 207 3 G 5 68° 85% - - 64° 73.9° 58.6° - - 1009.0
6/26 7:50pm 232 4 G 5 69° 85% - - 64° 73.9° 58.6° - - 1009.0
6/26 7:40pm 224 4 G 6 69° 84% - - 64° 73.9° 58.6° - - 1009.0
6/26 7:30pm 214 4 G 5 70° 83% - - 64° 73.9° 58.6° - - 1009.0
6/26 7:20pm 211 3 G 5 70° 82% - - 64° 73.9° 58.6° - - 1009.0
6/26 7:10pm 210 3 G 5 70° 81% - - 64° 73.9° 58.6° - - 1009.0
6/26 7:00pm 223 4 G 5 71° 80% - - 64° 73.9° 58.6° - - 1009.0
6/26 6:50pm 227 3 G 5 71° 79% - - 64° 73.9° 58.6° - - 1009.0
6/26 6:40pm 228 4 G 6 71° 78% - - 64° 73.9° 58.6° - - 1009.0
6/26 6:30pm 228 4 G 6 71° 77% - - 64° 73.9° 58.6° - - 1009.0
6/26 6:20pm 254 3 G 6 72° 75% - - 64° 73.9° 58.6° - - 1009.0
6/26 6:10pm 267 3 G 5 71° 74% - - 63° 73.9° 58.6° - - 1009.0
6/26 6:00pm 264 4 G 5 71° 73% - - 62° 73.9° 58.6° - - 1009.0
6/26 5:50pm 269 4 G 6 71° 72% - - 62° 73.9° 58.6° - - 1009.0
6/26 5:40pm 263 5 G 8 72° 70% - - 62° 73.9° 58.6° - - 1009.0
6/26 5:30pm 242 5 G 8 72° 73% - - 63° 73.9° 58.6° - - 1009.0
6/26 5:20pm 251 5 G 6 72° 72% - - 63° 73.9° 58.6° - - 1010.0
6/26 5:10pm 239 5 G 7 72° 72% - - 63° 73.9° 58.6° - - 1010.0
6/26 5:00pm 236 6 G 8 72° 72% - - 63° 73.9° 58.6° - - 1010.0
6/26 4:50pm 231 6 G 8 72° 69% - - 62° 73.9° 58.6° - - 1010.0
6/26 4:40pm 224 6 G 9 73° 67% - - 61° 73.9° 58.6° - - 1010.0
6/26 4:30pm 233 6 G 8 73° 64% - - 60° 73.9° 58.6° - - 1010.0
6/26 4:20pm 240 6 G 8 73° 65% - - 61° 73.9° 58.6° - - 1010.0
6/26 4:10pm 228 6 G 7 73° 67% - - 62° 73.9° 58.6° - - 1010.0
6/26 4:00pm 225 5 G 8 73° 69% - - 62° 73.5° 58.6° - - 1010.0
6/26 3:50pm 238 5 G 8 73° 71% - - 63° 73.2° 58.6° - - 1010.0
6/26 3:40pm 225 5 G 8 72° 74% - - 63° 72.5° 58.6° - - 1010.0
6/26 3:30pm 217 6 G 9 71° 76% - - 63° 72.4° 58.6° - - 1011.0
6/26 3:20pm 221 6 G 9 71° 76% - - 64° 72.4° 58.6° - - 1011.0
6/26 3:10pm 235 5 G 8 71° 75% - - 63° 72.4° 58.6° - - 1011.0
6/26 3:00pm 243 6 G 10 71° 76% - - 64° 72.3° 58.6° - - 1011.0
6/26 2:50pm 217 6 G 9 70° 79% - - 64° 71.5° 58.6° - - 1011.0
6/26 2:40pm 227 7 G 9 70° 79% - - 63° 71.5° 58.6° - - 1011.0
6/26 2:30pm 233 7 G 9 70° 79% - - 63° 71.5° 58.6° - - 1011.0
6/26 2:20pm 238 6 G 9 71° 79% - - 64° 71.5° 58.6° - - 1011.0
6/26 2:10pm 217 6 G 10 71° 80% - - 64° 71.5° 58.6° - - 1011.0
6/26 2:00pm 215 6 G 10 70° 79% - - 64° 71° 58.6° - - 1011.0
6/26 1:50pm 214 7 G 10 70° 80% - - 63° 70.8° 58.6° - - 1011.0
6/26 1:40pm 220 7 G 11 70° 80% - - 63° 70.8° 58.6° - - 1011.0
6/26 1:30pm 210 6 G 9 70° 80% - - 64° 70.8° 58.6° - - 1011.0
6/26 1:20pm 201 7 G 9 69° 82% - - 63° 70.7° 58.6° - - 1011.0
6/26 1:10pm 195 7 G 11 70° 81% - - 64° 70.7° 58.6° - - 1011.0
6/26 1:00pm 197 7 G 10 70° 80% - - 64° 70.7° 58.6° - - 1011.0
6/26 12:50pm 211 8 G 11 69° 83% - - 64° 70.2° 58.6° - - 1011.0
6/26 12:40pm 209 8 G 12 69° 85% - - 64° 70.2° 58.6° - - 1011.0
6/26 12:30pm 208 9 G 12 68° 86% - - 64° 70.2° 58.6° - - 1011.0
6/26 12:20pm 208 8 G 12 69° 85% - - 64° 70.2° 58.6° - - 1011.0
6/26 12:10pm 203 9 G 13 69° 85% - - 64° 70.2° 58.6° - - 1011.0
6/26 12:00pm 202 8 G 12 69° 84% - - 64° 70.2° 58.6° - - 1011.0
6/26 11:50am 208 8 G 12 68° 86% - - 64° 69.9° 58.6° - - 1011.0
6/26 11:40am 204 8 G 11 68° 86% - - 64° 69.9° 58.6° - - 1011.0
6/26 11:30am 200 8 G 11 68° 86% - - 64° 69.9° 58.6° - - 1011.0
6/26 11:20am 203 7 G 11 68° 86% - - 64° 69.9° 58.6° - - 1011.0
6/26 11:10am 211 8 G 11 69° 84% - - 63° 69.9° 58.6° - - 1011.0
6/26 11:00am 207 8 G 11 68° 83% - - 63° 69.9° 58.6° - - 1011.0
6/26 10:50am 200 7 G 11 69° 83% - - 63° 69.9° 58.6° - - 1011.0
6/26 10:40am 194 8 G 12 68° 83% - - 63° 69.9° 58.6° - - 1011.0
6/26 10:30am 200 8 G 11 68° 82% - - 62° 69.9° 58.6° - - 1011.0
6/26 10:20am 197 7 G 10 68° 81% - - 62° 69.9° 58.6° - - 1011.0
6/26 10:10am 202 7 G 9 69° 79% - - 62° 69.9° 58.6° - - 1011.0
6/26 10:00am 230 5 G 8 69° 79% - - 62° 69.8° 58.6° - - 1011.0
6/26 9:50am 230 5 G 7 69° 78% - - 62° 69.8° 58.6° - - 1011.0
6/26 9:40am 229 4 G 6 68° 78% - - 62° 69.8° 58.6° - - 1011.0
6/26 9:30am 230 5 G 7 69° 79% - - 62° 69.8° 58.6° - - 1011.0
6/26 9:20am 264 4 G 6 69° 79% - - 62° 69.7° 58.6° - - 1010.0
6/26 9:10am 264 4 G 5 68° 81% - - 62° 69.2° 58.6° - - 1010.0
6/26 9:00am 263 4 G 6 68° 80% - - 62° 69.2° 58.6° - - 1010.0
6/26 8:50am 256 4 G 6 68° 81% - - 62° 69° 58.6° - - 1010.0
6/26 8:40am 260 3 G 5 68° 82% - - 62° 69° 58.6° - - 1010.0
6/26 8:30am 266 3 G 5 67° 82% - - 62° 69° 58.6° - - 1010.0
6/26 8:20am 257 4 G 6 68° 81% - - 62° 69° 58.6° - - 1010.0
6/26 8:10am 270 3 G 4 68° 79% - - 61° 69° 58.6° - - 1010.0
6/26 8:00am 10 1 G 3 68° 80% - - 62° 69° 58.6° - - 1010.0
6/26 7:50am 339 1 G 2 67° 82% - - 61° 67.7° 58.6° - - 1010.0
6/26 7:40am 20 0 G 1 66° 85% - - 61° 66.8° 58.6° - - 1010.0
6/26 7:30am 43 1 G 2 65° 87% - - 61° 65.8° 58.6° - - 1010.0
6/26 7:20am 19 1 G 2 64° 88% - - 60° 65.3° 58.6° - - 1010.0
6/26 7:10am 31 1 G 2 63° 89% - - 60° 65.3° 58.6° - - 1009.0
6/26 7:00am 41 1 G 2 63° 91% - - 60° 65.3° 58.6° - - 1009.0
6/26 6:50am 24 1 G 1 62° 91% - - 59° 65.3° 58.6° - - 1009.0
6/26 6:40am 49 2 G 3 62° 91% - - 59° 65.3° 58.6° - - 1009.0
6/26 6:30am 61 2 G 3 61° 92% - - 59° 65.3° 58.6° - - 1009.0
6/26 6:20am 71 2 G 3 61° 92% - - 59° 65.3° 58.6° - - 1009.0
6/26 6:10am 48 3 G 5 61° 92% - - 59° 65.3° 58.6° - - 1009.0
6/26 6:00am 60 5 G 6 60° 92% - - 58° 65.3° 58.6° - - 1009.0